Ingleside, Texas
Current Conditions -  °F | °C
As of 3:15 AM on Wednesday 28 Jan 2015 (Local Time) from KTFP Reporting Station
Clear Clear  
Wind Chill: 58°   Ceiling: Unl
Heat Index: 58°   Visibility: 10mi
Dew Point: 46°   Wind: 7mph
Humidity: 65%   Direction: 220°SW
Pressure: 30.14"   Gusts: NA
Location:  27.88°N, 97.21°W
Report Text: KTFP 280915Z AUTO 22006KT 10SM CLR 15/08 A3014 RMK AO2 T01460080
Loading
Personal Weather Stations






























Interactive Weather Map New forecast layout! Learn more

10-Day Weather Forecast

Advertisements
Track Severe Weather on mobile